< < Back
Terminal Aerodrome Forecast


Current Version              Previous Versions:   1  2  3  4  5  6  7  8  9  

Terminal Aerodrome Forecast

261
FTUS44 KMOB 232330
TAFPNS
TAF
KPNS 232330Z 2400/2424 22008KT P6SM FEW250
     FM240200 VRB04KT P6SM FEW250
     FM241700 16009KT P6SM FEW200=

Latest METAR

327
SAUS70 KWBC 250056
MTRPNS
METAR KPNS 250053Z 22005KT 10SM CLR 25/16 A3011 RMK AO2 SLP196
T02500161


USA.gov is the U.S. government's official web portal to all federal, state and local government web resources and services.